createdAt,value
2023-02-15T00:00:17.120Z,-2.34
2023-02-15T00:00:50.696Z,-2.34
2023-02-15T00:01:18.968Z,-2.34
2023-02-15T00:01:49.254Z,-2.34
2023-02-15T00:02:21.114Z,-2.34
2023-02-15T00:02:52.180Z,-2.39
2023-02-15T00:03:23.883Z,-2.39
2023-02-15T00:03:53.152Z,-2.39
2023-02-15T00:04:25.750Z,-2.39
2023-02-15T00:04:55.771Z,-2.39
2023-02-15T00:05:27.326Z,-2.39
2023-02-15T00:05:57.714Z,-2.39
2023-02-15T00:06:28.897Z,-2.39
2023-02-15T00:06:59.285Z,-2.39
2023-02-15T00:07:31.329Z,-2.50
2023-02-15T00:08:02.155Z,-2.50
2023-02-15T00:08:32.853Z,-2.50
2023-02-15T00:09:03.383Z,-2.50
2023-02-15T00:09:35.236Z,-2.50
2023-02-15T00:10:05.690Z,-2.50
2023-02-15T00:10:37.289Z,-2.62
2023-02-15T00:11:07.212Z,-2.62
2023-02-15T00:11:38.933Z,-2.62
2023-02-15T00:12:09.296Z,-2.62
2023-02-15T00:12:41.078Z,-2.62
2023-02-15T00:13:12.138Z,-2.62
2023-02-15T00:13:42.929Z,-2.62
2023-02-15T00:14:13.829Z,-2.62
2023-02-15T00:14:44.911Z,-2.50
2023-02-15T00:15:15.319Z,-2.50
2023-02-15T00:15:47.992Z,-2.50
2023-02-15T00:16:18.303Z,-2.50
2023-02-15T00:16:48.910Z,-2.50
2023-02-15T00:17:19.162Z,-2.50
2023-02-15T00:17:50.888Z,-2.62
2023-02-15T00:18:22.188Z,-2.62
2023-02-15T00:18:52.897Z,-2.62
2023-02-15T00:19:23.304Z,-2.62
2023-02-15T00:19:54.900Z,-2.62
2023-02-15T00:20:25.262Z,-2.62
2023-02-15T00:20:57.761Z,-2.62
2023-02-15T00:21:27.396Z,-2.62
2023-02-15T00:21:58.915Z,-2.62
2023-02-15T00:22:29.166Z,-2.50
2023-02-15T00:23:00.906Z,-2.50
2023-02-15T00:23:32.753Z,-2.50
2023-02-15T00:24:03.090Z,-2.50
2023-02-15T00:24:33.164Z,-2.50
2023-02-15T00:25:05.507Z,-2.50
2023-02-15T00:25:35.528Z,-2.50
2023-02-15T00:26:06.929Z,-2.50
2023-02-15T00:26:37.531Z,-2.50
2023-02-15T00:27:08.866Z,-2.50
2023-02-15T00:27:39.756Z,-2.50
2023-02-15T00:28:10.879Z,-2.50
2023-02-15T00:28:42.126Z,-2.50
2023-02-15T00:29:13.003Z,-2.50
2023-02-15T00:29:43.677Z,-2.50
2023-02-15T00:30:16.825Z,-2.50
2023-02-15T00:30:45.293Z,-2.50
2023-02-15T00:31:17.185Z,-2.50
2023-02-15T00:31:47.374Z,-2.50
2023-02-15T00:32:19.008Z,-2.50
2023-02-15T00:32:49.176Z,-2.50
2023-02-15T00:33:20.864Z,-2.50
2023-02-15T00:33:52.474Z,-2.50
2023-02-15T00:34:23.288Z,-2.50
2023-02-15T00:34:54.481Z,-2.50
2023-02-15T00:35:25.933Z,-2.50
2023-02-15T00:35:55.134Z,-2.50
2023-02-15T00:36:26.890Z,-2.50
2023-02-15T00:36:57.450Z,-2.50
2023-02-15T00:37:29.140Z,-2.50
2023-02-15T00:37:59.132Z,-2.50
2023-02-15T00:38:31.006Z,-2.62
2023-02-15T00:39:02.567Z,-2.62
2023-02-15T00:39:33.242Z,-2.62
2023-02-15T00:40:03.814Z,-2.62
2023-02-15T00:40:40.099Z,-2.62
2023-02-15T00:41:05.941Z,-2.62
2023-02-15T00:41:36.198Z,-2.62
2023-02-15T00:42:07.856Z,-2.50
2023-02-15T00:42:38.183Z,-2.50
2023-02-15T00:43:09.983Z,-2.50
2023-02-15T00:43:40.161Z,-2.50
2023-02-15T00:44:12.919Z,-2.50
2023-02-15T00:44:42.092Z,-2.50
2023-02-15T00:45:17.129Z,-2.50
2023-02-15T00:45:44.884Z,-2.50
2023-02-15T00:46:15.837Z,-2.50
2023-02-15T00:46:46.855Z,-2.50
2023-02-15T00:47:18.288Z,-2.50
2023-02-15T00:47:49.259Z,-2.50
2023-02-15T00:48:19.488Z,-2.39
2023-02-15T00:48:50.837Z,-2.39
2023-02-15T00:49:22.266Z,-2.50
2023-02-15T00:49:52.816Z,-2.39
2023-02-15T00:50:23.936Z,-2.50
2023-02-15T00:50:55.410Z,-2.50
2023-02-15T00:51:25.220Z,-2.50
2023-02-15T00:51:57.049Z,-2.50
2023-02-15T00:52:27.587Z,-2.50
2023-02-15T00:52:58.986Z,-2.62
2023-02-15T00:53:29.268Z,-2.62
2023-02-15T00:54:01.524Z,-2.62
2023-02-15T00:54:32.366Z,-2.62
2023-02-15T00:55:03.347Z,-2.50
2023-02-15T00:55:33.435Z,-2.50
2023-02-15T00:56:05.155Z,-2.50
2023-02-15T00:56:35.311Z,-2.50
2023-02-15T00:57:06.976Z,-2.50
2023-02-15T00:57:37.461Z,-2.50
2023-02-15T00:58:09.170Z,-2.50
2023-02-15T00:58:40.141Z,-2.50
2023-02-15T00:59:10.966Z,-2.50
2023-02-15T00:59:43.802Z,-2.50
2023-02-15T01:00:14.705Z,-2.50
2023-02-15T01:00:51.294Z,-2.50
2023-02-15T01:01:15.505Z,-2.50
2023-02-15T01:01:45.313Z,-2.50
2023-02-15T01:02:17.189Z,-2.50
2023-02-15T01:02:47.139Z,-2.50
2023-02-15T01:03:18.890Z,-2.50
2023-02-15T01:03:49.198Z,-2.50
2023-02-15T01:04:21.001Z,-2.50
2023-02-15T01:04:52.132Z,-2.50
2023-02-15T01:05:23.294Z,-2.50
2023-02-15T01:05:53.126Z,-2.50
2023-02-15T01:06:24.928Z,-2.50
2023-02-15T01:06:55.195Z,-2.50
2023-02-15T01:07:26.927Z,-2.50
2023-02-15T01:07:58.160Z,-2.50
2023-02-15T01:08:28.883Z,-2.50
2023-02-15T01:08:59.174Z,-2.50
2023-02-15T01:09:30.876Z,-2.62
2023-02-15T01:10:02.841Z,-2.62
2023-02-15T01:10:32.866Z,-2.62
2023-02-15T01:11:03.423Z,-2.62
2023-02-15T01:11:35.034Z,-2.62
2023-02-15T01:12:05.364Z,-2.62
2023-02-15T01:12:37.071Z,-2.62
2023-02-15T01:13:07.330Z,-2.50
2023-02-15T01:13:39.010Z,-2.50
2023-02-15T01:14:09.164Z,-2.50
2023-02-15T01:14:41.317Z,-2.50
2023-02-15T01:15:13.053Z,-2.50
2023-02-15T01:15:44.070Z,-2.50
2023-02-15T01:16:13.144Z,-2.50
2023-02-15T01:16:44.954Z,-2.50
2023-02-15T01:17:15.228Z,-2.50
2023-02-15T01:17:47.547Z,-2.62
2023-02-15T01:18:18.829Z,-2.62
2023-02-15T01:18:49.353Z,-2.62
2023-02-15T01:19:19.137Z,-2.62
2023-02-15T01:19:51.026Z,-2.62
2023-02-15T01:20:22.546Z,-2.62
2023-02-15T01:20:52.857Z,-2.62
2023-02-15T01:21:23.705Z,-2.62
2023-02-15T01:21:55.047Z,-2.62
2023-02-15T01:22:25.548Z,-2.62
2023-02-15T01:22:56.818Z,-2.62
2023-02-15T01:23:27.110Z,-2.62
2023-02-15T01:23:58.842Z,-2.62
2023-02-15T01:24:29.366Z,-2.62
2023-02-15T01:25:02.100Z,-2.73
2023-02-15T01:25:32.181Z,-2.73
2023-02-15T01:26:03.660Z,-2.73
2023-02-15T01:26:33.410Z,-2.73
2023-02-15T01:27:04.834Z,-2.73
2023-02-15T01:27:35.161Z,-2.73
2023-02-15T01:28:07.255Z,-2.73
2023-02-15T01:28:37.419Z,-2.73
2023-02-15T01:29:09.027Z,-2.73
2023-02-15T01:29:39.154Z,-2.62
2023-02-15T01:30:11.868Z,-2.62
2023-02-15T01:30:42.844Z,-2.62
2023-02-15T01:31:13.211Z,-2.62
2023-02-15T01:31:43.305Z,-2.62
2023-02-15T01:32:14.955Z,-2.62
2023-02-15T01:32:45.158Z,-2.62
2023-02-15T01:33:17.264Z,-2.62
2023-02-15T01:33:47.163Z,-2.62
2023-02-15T01:34:19.738Z,-2.62
2023-02-15T01:34:49.774Z,-2.62
2023-02-15T01:35:21.572Z,-2.62
2023-02-15T01:35:52.151Z,-2.62
2023-02-15T01:36:22.834Z,-2.62
2023-02-15T01:36:53.132Z,-2.62
2023-02-15T01:37:24.979Z,-2.62
2023-02-15T01:37:55.116Z,-2.62
2023-02-15T01:38:27.437Z,-2.62
2023-02-15T01:38:58.017Z,-2.62
2023-02-15T01:39:29.132Z,-2.62
2023-02-15T01:39:59.140Z,-2.62
2023-02-15T01:40:37.463Z,-2.62
2023-02-15T01:41:02.136Z,-2.62
2023-02-15T01:41:33.329Z,-2.62
2023-02-15T01:42:03.193Z,-2.62
2023-02-15T01:42:34.850Z,-2.62
2023-02-15T01:43:05.117Z,-2.73
2023-02-15T01:43:36.940Z,-2.73
2023-02-15T01:44:07.189Z,-2.84
2023-02-15T01:44:39.044Z,-2.84
2023-02-15T01:45:10.406Z,-2.84
2023-02-15T01:45:40.896Z,-2.84
2023-02-15T01:46:12.216Z,-2.84
2023-02-15T01:46:43.128Z,-2.84
2023-02-15T01:47:13.129Z,-2.84
2023-02-15T01:47:44.963Z,-2.84
2023-02-15T01:48:15.791Z,-2.84
2023-02-15T01:48:46.806Z,-2.73
2023-02-15T01:49:18.220Z,-2.73
2023-02-15T01:49:48.805Z,-2.73
2023-02-15T01:50:19.608Z,-2.73
2023-02-15T01:50:50.960Z,-2.73
2023-02-15T01:51:22.128Z,-2.73
2023-02-15T01:51:53.020Z,-2.84
2023-02-15T01:52:23.552Z,-2.84
2023-02-15T01:52:54.879Z,-2.84
2023-02-15T01:53:25.277Z,-2.84
2023-02-15T01:53:57.009Z,-2.84
2023-02-15T01:54:27.125Z,-2.84
2023-02-15T01:54:59.262Z,-2.84
2023-02-15T01:55:29.771Z,-2.84
2023-02-15T01:56:01.309Z,-2.84
2023-02-15T01:56:32.179Z,-2.73
2023-02-15T01:57:02.817Z,-2.73
2023-02-15T01:57:33.140Z,-2.84
2023-02-15T01:58:04.911Z,-2.84
2023-02-15T01:58:35.261Z,-2.84
2023-02-15T01:59:06.829Z,-2.84
2023-02-15T01:59:37.548Z,-2.84
2023-02-15T02:00:11.333Z,-2.84
2023-02-15T02:00:47.372Z,-2.73
2023-02-15T02:01:11.033Z,-2.73
2023-02-15T02:01:42.424Z,-2.73
2023-02-15T02:02:12.924Z,-2.73
2023-02-15T02:02:43.200Z,-2.73
2023-02-15T02:03:15.076Z,-2.73
2023-02-15T02:03:45.144Z,-2.73
2023-02-15T02:04:16.920Z,-2.73
2023-02-15T02:04:47.120Z,-2.73
2023-02-15T02:05:19.326Z,-2.84
2023-02-15T02:05:49.565Z,-2.84
2023-02-15T02:06:20.852Z,-2.84
2023-02-15T02:06:52.113Z,-2.84
2023-02-15T02:07:22.951Z,-2.84
2023-02-15T02:07:53.092Z,-2.84
2023-02-15T02:08:25.757Z,-2.84
2023-02-15T02:08:55.264Z,-2.84
2023-02-15T02:09:26.942Z,-2.84
2023-02-15T02:09:57.563Z,-2.84
2023-02-15T02:10:29.547Z,-2.84
2023-02-15T02:10:59.332Z,-2.84
2023-02-15T02:11:31.066Z,-2.84
2023-02-15T02:12:02.134Z,-2.84
2023-02-15T02:12:33.000Z,-2.84
2023-02-15T02:13:03.204Z,-2.84
2023-02-15T02:13:35.140Z,-2.84
2023-02-15T02:14:05.379Z,-2.84
2023-02-15T02:14:36.851Z,-2.84
2023-02-15T02:15:08.588Z,-2.84
2023-02-15T02:15:38.208Z,-2.73
2023-02-15T02:16:10.741Z,-2.73
2023-02-15T02:16:40.161Z,-2.73
2023-02-15T02:17:12.811Z,-2.73
2023-02-15T02:17:42.125Z,-2.84
2023-02-15T02:18:13.827Z,-2.84
2023-02-15T02:18:44.123Z,-2.84
2023-02-15T02:19:16.058Z,-2.73
2023-02-15T02:19:46.160Z,-2.73
2023-02-15T02:20:21.162Z,-2.73
2023-02-15T02:20:48.287Z,-2.73
2023-02-15T02:21:19.806Z,-2.73
2023-02-15T02:21:50.690Z,-2.73
2023-02-15T02:22:22.828Z,-2.73
2023-02-15T02:22:52.113Z,-2.73
2023-02-15T02:23:23.849Z,-2.73
2023-02-15T02:23:54.373Z,-2.73
2023-02-15T02:24:25.865Z,-2.73
2023-02-15T02:24:56.191Z,-2.73
2023-02-15T02:25:28.375Z,-2.73
2023-02-15T02:25:58.576Z,-2.73
2023-02-15T02:26:29.889Z,-2.73
2023-02-15T02:27:00.106Z,-2.62
2023-02-15T02:27:32.780Z,-2.62
2023-02-15T02:28:02.178Z,-2.62
2023-02-15T02:28:34.374Z,-2.62
2023-02-15T02:29:04.131Z,-2.62
2023-02-15T02:29:36.314Z,-2.62
2023-02-15T02:30:07.277Z,-2.62
2023-02-15T02:30:38.709Z,-2.62
2023-02-15T02:31:08.296Z,-2.50
2023-02-15T02:31:39.975Z,-2.50
2023-02-15T02:32:10.153Z,-2.50
2023-02-15T02:32:43.038Z,-2.50
2023-02-15T02:33:12.100Z,-2.50
2023-02-15T02:33:43.830Z,-2.50
2023-02-15T02:34:14.113Z,-2.50
2023-02-15T02:34:45.915Z,-2.50
2023-02-15T02:35:17.048Z,-2.50
2023-02-15T02:35:48.054Z,-2.50
2023-02-15T02:36:18.158Z,-2.50
2023-02-15T02:36:49.837Z,-2.50
2023-02-15T02:37:20.128Z,-2.50
2023-02-15T02:37:53.571Z,-2.50
2023-02-15T02:38:22.088Z,-2.50
2023-02-15T02:38:54.266Z,-2.50
2023-02-15T02:39:24.673Z,-2.50
2023-02-15T02:39:56.172Z,-2.62
2023-02-15T02:40:27.235Z,-2.62
2023-02-15T02:40:58.318Z,-2.62
2023-02-15T02:41:28.160Z,-2.62
2023-02-15T02:42:00.769Z,-2.50
2023-02-15T02:42:30.132Z,-2.50
2023-02-15T02:43:02.927Z,-2.50
2023-02-15T02:43:32.104Z,-2.50
2023-02-15T02:44:04.048Z,-2.50
2023-02-15T02:44:34.109Z,-2.50
2023-02-15T02:45:07.037Z,-2.50
2023-02-15T02:45:36.178Z,-2.39
2023-02-15T02:46:08.196Z,-2.39
2023-02-15T02:46:38.388Z,-2.39
2023-02-15T02:47:10.205Z,-2.39
2023-02-15T02:47:40.180Z,-2.39
2023-02-15T02:48:13.012Z,-2.39
2023-02-15T02:48:42.384Z,-2.39
2023-02-15T02:49:14.369Z,-2.39
2023-02-15T02:49:44.246Z,-2.39
2023-02-15T02:50:16.304Z,-2.39
2023-02-15T02:50:46.171Z,-2.39
2023-02-15T02:51:19.791Z,-2.39
2023-02-15T02:51:48.093Z,-2.39
2023-02-15T02:52:19.838Z,-2.39
2023-02-15T02:52:50.523Z,-2.39
2023-02-15T02:53:23.742Z,-2.39
2023-02-15T02:53:52.127Z,-2.39
2023-02-15T02:54:23.433Z,-2.39
2023-02-15T02:54:54.886Z,-2.39
2023-02-15T02:55:26.424Z,-2.39
2023-02-15T02:55:56.797Z,-2.39
2023-02-15T02:56:27.185Z,-2.39
2023-02-15T02:56:59.301Z,-2.39
2023-02-15T02:57:29.110Z,-2.39
2023-02-15T02:58:01.035Z,-2.39
2023-02-15T02:58:32.102Z,-2.39
2023-02-15T02:59:03.383Z,-2.39
2023-02-15T02:59:33.537Z,-2.39
2023-02-15T03:00:07.023Z,-2.39
2023-02-15T03:00:35.634Z,-2.39
2023-02-15T03:01:06.823Z,-2.39
2023-02-15T03:01:38.005Z,-2.39
2023-02-15T03:02:09.950Z,-2.34
2023-02-15T03:02:39.186Z,-2.34
2023-02-15T03:03:11.056Z,-2.34
2023-02-15T03:03:42.180Z,-2.39
2023-02-15T03:04:12.845Z,-2.50
2023-02-15T03:04:43.461Z,-2.50
2023-02-15T03:05:15.332Z,-2.50
2023-02-15T03:05:45.292Z,-2.50
2023-02-15T03:06:17.130Z,-2.50
2023-02-15T03:06:47.197Z,-2.50
2023-02-15T03:07:18.844Z,-2.50
2023-02-15T03:07:49.289Z,-2.50
2023-02-15T03:08:20.804Z,-2.50
2023-02-15T03:08:52.520Z,-2.50
2023-02-15T03:09:22.916Z,-2.50
2023-02-15T03:09:53.160Z,-2.50
2023-02-15T03:10:25.631Z,-2.50
2023-02-15T03:10:55.277Z,-2.62
2023-02-15T03:11:27.219Z,-2.73
2023-02-15T03:11:57.413Z,-2.73
2023-02-15T03:12:29.427Z,-2.73
2023-02-15T03:12:59.540Z,-2.73
2023-02-15T03:13:30.914Z,-2.73
2023-02-15T03:14:02.146Z,-2.73
2023-02-15T03:14:33.131Z,-2.62
2023-02-15T03:15:03.198Z,-2.62
2023-02-15T03:15:36.008Z,-2.62
2023-02-15T03:16:06.049Z,-2.62
2023-02-15T03:16:36.194Z,-2.62
2023-02-15T03:17:08.087Z,-2.62
2023-02-15T03:17:38.078Z,-2.62
2023-02-15T03:18:09.960Z,-2.62
2023-02-15T03:18:40.102Z,-2.50
2023-02-15T03:19:13.265Z,-2.50
2023-02-15T03:19:42.555Z,-2.50
2023-02-15T03:20:13.511Z,-2.50
2023-02-15T03:20:45.652Z,-2.50
2023-02-15T03:21:15.380Z,-2.50
2023-02-15T03:21:47.249Z,-2.50
2023-02-15T03:22:18.603Z,-2.50
2023-02-15T03:22:49.107Z,-2.50
2023-02-15T03:23:19.161Z,-2.50
2023-02-15T03:23:50.830Z,-2.50
2023-02-15T03:24:22.160Z,-2.62
2023-02-15T03:24:54.293Z,-2.62
2023-02-15T03:25:23.546Z,-2.73
2023-02-15T03:25:54.928Z,-2.73
2023-02-15T03:26:25.689Z,-2.73
2023-02-15T03:26:57.384Z,-2.73
2023-02-15T03:27:27.091Z,-2.73
2023-02-15T03:27:58.806Z,-2.62
2023-02-15T03:28:29.151Z,-2.62
2023-02-15T03:29:01.676Z,-2.62
2023-02-15T03:29:32.434Z,-2.62
2023-02-15T03:30:03.149Z,-2.62
2023-02-15T03:30:33.901Z,-2.62
2023-02-15T03:31:05.003Z,-2.62
2023-02-15T03:31:35.490Z,-2.62
2023-02-15T03:32:06.919Z,-2.62
2023-02-15T03:32:37.703Z,-2.62
2023-02-15T03:33:08.848Z,-2.62
2023-02-15T03:33:39.148Z,-2.50
2023-02-15T03:34:10.854Z,-2.50
2023-02-15T03:34:42.099Z,-2.62
2023-02-15T03:35:13.880Z,-2.62
2023-02-15T03:35:43.106Z,-2.62
2023-02-15T03:36:14.839Z,-2.62
2023-02-15T03:36:45.132Z,-2.73
2023-02-15T03:37:17.374Z,-2.73
2023-02-15T03:37:47.109Z,-2.73
2023-02-15T03:38:19.228Z,-2.73
2023-02-15T03:38:49.110Z,-2.62
2023-02-15T03:39:20.814Z,-2.62
2023-02-15T03:39:52.153Z,-2.62
2023-02-15T03:40:23.594Z,-2.62
2023-02-15T03:40:53.119Z,-2.62
2023-02-15T03:41:24.852Z,-2.62
2023-02-15T03:41:55.156Z,-2.73
2023-02-15T03:42:27.223Z,-2.73
2023-02-15T03:42:57.740Z,-2.73
2023-02-15T03:43:28.976Z,-2.73
2023-02-15T03:43:59.337Z,-2.73
2023-02-15T03:44:30.853Z,-2.73
2023-02-15T03:45:02.421Z,-2.62
2023-02-15T03:45:33.613Z,-2.62
2023-02-15T03:46:03.702Z,-2.73
2023-02-15T03:46:35.310Z,-2.73
2023-02-15T03:47:05.130Z,-2.73
2023-02-15T03:47:36.852Z,-2.73
2023-02-15T03:48:07.100Z,-2.73
2023-02-15T03:48:39.150Z,-2.73
2023-02-15T03:49:09.080Z,-2.73
2023-02-15T03:49:40.798Z,-2.73
2023-02-15T03:50:12.542Z,-2.73
2023-02-15T03:50:43.002Z,-2.73
2023-02-15T03:51:13.175Z,-2.73
2023-02-15T03:51:45.464Z,-2.73
2023-02-15T03:52:15.097Z,-2.73
2023-02-15T03:52:46.807Z,-2.73
2023-02-15T03:53:21.844Z,-2.73
2023-02-15T03:53:48.919Z,-2.73
2023-02-15T03:54:19.090Z,-2.73
2023-02-15T03:54:50.795Z,-2.73
2023-02-15T03:55:22.714Z,-2.73
2023-02-15T03:55:53.490Z,-2.62
2023-02-15T03:56:23.262Z,-2.62
2023-02-15T03:56:55.021Z,-2.62
2023-02-15T03:57:25.352Z,-2.62
2023-02-15T03:57:56.805Z,-2.62
2023-02-15T03:58:27.152Z,-2.62
2023-02-15T03:58:59.046Z,-2.73
2023-02-15T03:59:29.246Z,-2.73
2023-02-15T04:00:01.727Z,-2.73
2023-02-15T04:00:33.138Z,-2.73
2023-02-15T04:01:03.002Z,-2.84
2023-02-15T04:01:33.271Z,-2.84
2023-02-15T04:02:05.159Z,-2.84
2023-02-15T04:02:35.312Z,-2.84
2023-02-15T04:03:07.123Z,-2.84
2023-02-15T04:03:37.441Z,-2.84
2023-02-15T04:04:09.110Z,-2.84
2023-02-15T04:04:39.202Z,-2.84
2023-02-15T04:05:11.287Z,-2.84
2023-02-15T04:05:42.127Z,-2.84
2023-02-15T04:06:12.953Z,-2.84
2023-02-15T04:06:43.833Z,-2.84
2023-02-15T04:07:14.937Z,-2.84
2023-02-15T04:07:45.636Z,-2.84
2023-02-15T04:08:16.954Z,-2.73
2023-02-15T04:08:47.328Z,-2.73
2023-02-15T04:09:19.247Z,-2.73
2023-02-15T04:09:49.194Z,-2.73
2023-02-15T04:10:21.335Z,-2.73
2023-02-15T04:10:52.218Z,-2.73
2023-02-15T04:11:22.872Z,-2.73
2023-02-15T04:11:53.184Z,-2.73
2023-02-15T04:12:25.008Z,-2.73
2023-02-15T04:12:55.106Z,-2.73
2023-02-15T04:13:27.103Z,-2.73
2023-02-15T04:13:57.546Z,-2.73
2023-02-15T04:14:28.921Z,-2.73
2023-02-15T04:14:59.362Z,-2.73
2023-02-15T04:15:30.888Z,-2.73
2023-02-15T04:16:03.356Z,-2.73
2023-02-15T04:16:32.466Z,-2.73
2023-02-15T04:17:04.013Z,-2.73
2023-02-15T04:17:34.410Z,-2.73
2023-02-15T04:18:06.037Z,-2.73
2023-02-15T04:18:36.392Z,-2.73
2023-02-15T04:19:07.822Z,-2.73
2023-02-15T04:19:38.187Z,-2.73
2023-02-15T04:20:10.441Z,-2.73
2023-02-15T04:20:40.728Z,-2.84
2023-02-15T04:21:13.003Z,-2.84
2023-02-15T04:21:42.193Z,-2.84
2023-02-15T04:22:15.424Z,-2.84
2023-02-15T04:22:44.126Z,-2.84
2023-02-15T04:23:15.109Z,-2.84
2023-02-15T04:23:46.966Z,-2.84
2023-02-15T04:24:18.663Z,-2.84
2023-02-15T04:24:48.906Z,-2.84
2023-02-15T04:25:19.555Z,-2.84
2023-02-15T04:25:51.030Z,-2.84
2023-02-15T04:26:22.113Z,-2.84
2023-02-15T04:26:53.165Z,-2.84
2023-02-15T04:27:23.140Z,-2.84
2023-02-15T04:27:54.870Z,-2.84
2023-02-15T04:28:25.148Z,-2.84
2023-02-15T04:28:56.945Z,-2.84
2023-02-15T04:29:27.110Z,-2.84
2023-02-15T04:29:58.941Z,-2.84
2023-02-15T04:30:30.130Z,-2.89
2023-02-15T04:31:00.953Z,-2.89
2023-02-15T04:31:32.708Z,-2.89
2023-02-15T04:32:03.085Z,-2.89
2023-02-15T04:32:33.097Z,-2.89
2023-02-15T04:33:05.336Z,-3.00
2023-02-15T04:33:35.724Z,-3.00
2023-02-15T04:34:06.932Z,-3.00
2023-02-15T04:34:37.439Z,-3.00
2023-02-15T04:35:09.261Z,-3.00
2023-02-15T04:35:39.194Z,-3.00
2023-02-15T04:36:11.499Z,-3.00
2023-02-15T04:36:42.067Z,-3.00
2023-02-15T04:37:12.970Z,-3.00
2023-02-15T04:37:43.217Z,-3.00
2023-02-15T04:38:14.967Z,-3.00
2023-02-15T04:38:45.117Z,-3.00
2023-02-15T04:39:17.220Z,-3.00
2023-02-15T04:39:47.070Z,-3.00
2023-02-15T04:40:19.871Z,-3.00
2023-02-15T04:40:49.051Z,-2.89
2023-02-15T04:41:20.885Z,-2.89
2023-02-15T04:41:52.053Z,-2.89
2023-02-15T04:42:23.198Z,-2.89
2023-02-15T04:42:53.066Z,-2.89
2023-02-15T04:43:25.461Z,-3.00
2023-02-15T04:43:55.076Z,-3.00
2023-02-15T04:44:26.801Z,-3.00
2023-02-15T04:44:57.388Z,-3.00
2023-02-15T04:45:29.616Z,-2.89
2023-02-15T04:45:59.529Z,-2.89
2023-02-15T04:46:30.896Z,-2.89
2023-02-15T04:47:02.082Z,-2.89
2023-02-15T04:47:32.791Z,-2.89
2023-02-15T04:48:03.405Z,-2.89
2023-02-15T04:48:35.010Z,-2.89
2023-02-15T04:49:05.101Z,-2.89
2023-02-15T04:49:37.317Z,-3.00
2023-02-15T04:50:07.897Z,-3.00
2023-02-15T04:50:38.790Z,-3.00
2023-02-15T04:51:09.204Z,-3.00
2023-02-15T04:51:41.186Z,-2.89
2023-02-15T04:52:12.051Z,-2.89
2023-02-15T04:52:42.949Z,-2.89
2023-02-15T04:53:13.334Z,-2.89
2023-02-15T04:53:46.123Z,-2.89
2023-02-15T04:54:15.187Z,-2.89
2023-02-15T04:54:49.788Z,-3.00
2023-02-15T04:55:19.352Z,-3.00
2023-02-15T04:55:48.159Z,-3.00
2023-02-15T04:56:20.373Z,-3.00
2023-02-15T04:56:51.139Z,-3.00
2023-02-15T04:57:23.234Z,-3.00
2023-02-15T04:57:53.027Z,-3.00
2023-02-15T04:58:23.119Z,-3.00
2023-02-15T04:58:54.971Z,-3.00
2023-02-15T04:59:25.369Z,-3.00
2023-02-15T04:59:56.789Z,-3.00
2023-02-15T05:00:28.944Z,-3.00
2023-02-15T05:00:58.946Z,-3.00
2023-02-15T05:01:29.264Z,-3.00
2023-02-15T05:02:01.105Z,-3.00
2023-02-15T05:02:32.365Z,-3.00
2023-02-15T05:03:03.568Z,-3.00
2023-02-15T05:03:33.129Z,-3.00
2023-02-15T05:04:04.875Z,-3.00
2023-02-15T05:04:35.711Z,-3.00
2023-02-15T05:05:07.375Z,-3.00
2023-02-15T05:05:37.444Z,-3.00
2023-02-15T05:06:09.426Z,-3.12
2023-02-15T05:06:39.285Z,-3.12
2023-02-15T05:07:10.978Z,-3.12
2023-02-15T05:07:42.238Z,-3.12
2023-02-15T05:08:13.173Z,-3.12
2023-02-15T05:08:43.113Z,-3.12
2023-02-15T05:09:14.785Z,-3.12
2023-02-15T05:09:45.073Z,-3.12
2023-02-15T05:10:17.298Z,-3.12
2023-02-15T05:10:47.104Z,-3.12
2023-02-15T05:11:18.851Z,-3.12
2023-02-15T05:11:49.090Z,-3.12
2023-02-15T05:12:20.929Z,-3.00
2023-02-15T05:12:52.503Z,-3.00
2023-02-15T05:13:22.891Z,-3.00
2023-02-15T05:13:53.930Z,-3.00
2023-02-15T05:14:24.923Z,-3.00
2023-02-15T05:14:55.181Z,-3.12
2023-02-15T05:15:27.169Z,-3.12
2023-02-15T05:15:57.679Z,-3.12
2023-02-15T05:16:29.493Z,-3.12
2023-02-15T05:16:59.156Z,-3.23
2023-02-15T05:17:31.101Z,-3.23
2023-02-15T05:18:02.202Z,-3.23
2023-02-15T05:18:32.888Z,-3.23
2023-02-15T05:19:03.173Z,-3.23
2023-02-15T05:19:35.066Z,-3.23
2023-02-15T05:20:05.509Z,-3.34
2023-02-15T05:20:38.846Z,-3.34
2023-02-15T05:21:07.072Z,-3.34
2023-02-15T05:21:39.588Z,-3.34
2023-02-15T05:22:09.089Z,-3.34
2023-02-15T05:22:40.891Z,-3.34
2023-02-15T05:23:12.529Z,-3.34
2023-02-15T05:23:43.630Z,-3.34
2023-02-15T05:24:13.392Z,-3.34
2023-02-15T05:24:45.190Z,-3.34
2023-02-15T05:25:15.434Z,-3.34
2023-02-15T05:25:46.981Z,-3.34
2023-02-15T05:26:19.303Z,-3.34
2023-02-15T05:26:48.862Z,-3.34
2023-02-15T05:27:19.867Z,-3.34
2023-02-15T05:27:50.797Z,-3.34
2023-02-15T05:28:22.069Z,-3.23
2023-02-15T05:28:53.290Z,-3.23
2023-02-15T05:29:23.065Z,-3.23
2023-02-15T05:29:55.669Z,-3.23
2023-02-15T05:30:26.244Z,-3.34
2023-02-15T05:30:57.264Z,-3.34
2023-02-15T05:31:27.617Z,-3.34
2023-02-15T05:31:59.481Z,-3.34
2023-02-15T05:32:29.175Z,-3.34
2023-02-15T05:33:01.864Z,-3.34
2023-02-15T05:33:32.190Z,-3.34
2023-02-15T05:34:03.025Z,-3.34
2023-02-15T05:34:33.102Z,-3.34
2023-02-15T05:35:04.978Z,-3.34
2023-02-15T05:35:35.623Z,-3.34
2023-02-15T05:36:13.235Z,-3.34
2023-02-15T05:36:38.622Z,-3.34
2023-02-15T05:37:08.078Z,-3.34
2023-02-15T05:37:40.642Z,-3.23
2023-02-15T05:38:10.146Z,-3.23
2023-02-15T05:38:43.297Z,-3.23
2023-02-15T05:39:12.096Z,-3.23
2023-02-15T05:39:43.257Z,-3.23
2023-02-15T05:40:15.250Z,-3.23
2023-02-15T05:40:48.223Z,-3.23
2023-02-15T05:41:17.268Z,-3.23
2023-02-15T05:41:47.120Z,-3.23
2023-02-15T05:42:18.937Z,-3.23
2023-02-15T05:42:49.277Z,-3.23
2023-02-15T05:43:21.534Z,-3.23
2023-02-15T05:43:52.176Z,-3.23
2023-02-15T05:44:22.974Z,-3.23
2023-02-15T05:44:53.108Z,-3.23
2023-02-15T05:45:25.613Z,-3.23
2023-02-15T05:45:55.186Z,-3.23
2023-02-15T05:46:27.173Z,-3.23
2023-02-15T05:46:58.652Z,-3.23
2023-02-15T05:47:29.109Z,-3.23
2023-02-15T05:47:59.073Z,-3.23
2023-02-15T05:48:30.873Z,-3.23
2023-02-15T05:49:02.520Z,-3.23
2023-02-15T05:49:32.934Z,-3.23
2023-02-15T05:50:03.173Z,-3.23
2023-02-15T05:50:35.513Z,-3.23
2023-02-15T05:51:05.322Z,-3.23
2023-02-15T05:51:36.806Z,-3.12
2023-02-15T05:52:07.127Z,-3.12
2023-02-15T05:52:38.813Z,-3.12
2023-02-15T05:53:09.103Z,-3.12
2023-02-15T05:53:40.883Z,-3.12
2023-02-15T05:54:12.182Z,-3.12
2023-02-15T05:54:44.273Z,-3.12
2023-02-15T05:55:13.609Z,-3.12
2023-02-15T05:55:44.892Z,-3.12
2023-02-15T05:56:15.083Z,-3.12
2023-02-15T05:56:48.108Z,-3.12
2023-02-15T05:57:18.368Z,-3.12
2023-02-15T05:57:49.115Z,-3.12
2023-02-15T05:58:19.236Z,-3.12
2023-02-15T05:58:50.976Z,-3.12
2023-02-15T05:59:22.097Z,-3.12
2023-02-15T05:59:52.865Z,-3.12
2023-02-15T06:00:24.089Z,-3.12
2023-02-15T06:00:57.643Z,-3.12
2023-02-15T06:01:25.148Z,-3.00
2023-02-15T06:01:56.928Z,-3.00
2023-02-15T06:02:27.249Z,-3.00
2023-02-15T06:02:58.755Z,-3.00
2023-02-15T06:03:29.100Z,-3.00
2023-02-15T06:04:01.030Z,-3.00
2023-02-15T06:04:32.047Z,-3.00
2023-02-15T06:05:03.124Z,-3.00
2023-02-15T06:05:33.729Z,-3.00
2023-02-15T06:06:04.851Z,-3.00
2023-02-15T06:06:35.203Z,-3.00
2023-02-15T06:07:06.828Z,-3.00
2023-02-15T06:07:38.086Z,-3.00
2023-02-15T06:08:09.071Z,-3.00
2023-02-15T06:08:39.554Z,-3.00
2023-02-15T06:09:10.876Z,-3.00
2023-02-15T06:09:42.079Z,-3.00
2023-02-15T06:10:14.126Z,-3.00
2023-02-15T06:10:43.123Z,-3.00
2023-02-15T06:11:14.890Z,-3.00
2023-02-15T06:11:45.327Z,-3.00
2023-02-15T06:12:16.923Z,-3.00
2023-02-15T06:12:47.131Z,-2.89
2023-02-15T06:13:19.002Z,-2.89
2023-02-15T06:13:49.110Z,-2.89
2023-02-15T06:14:21.153Z,-2.89
2023-02-15T06:14:52.053Z,-2.89
2023-02-15T06:15:23.015Z,-2.89
2023-02-15T06:15:53.184Z,-2.89
2023-02-15T06:16:25.085Z,-2.89
2023-02-15T06:16:55.212Z,-2.89
2023-02-15T06:17:27.078Z,-2.89
2023-02-15T06:17:57.404Z,-2.89
2023-02-15T06:18:28.968Z,-2.89
2023-02-15T06:18:59.148Z,-2.89
2023-02-15T06:19:31.052Z,-2.89
2023-02-15T06:20:02.918Z,-2.89
2023-02-15T06:20:38.789Z,-2.89
2023-02-15T06:21:04.022Z,-2.89
2023-02-15T06:21:35.004Z,-2.89
2023-02-15T06:22:05.244Z,-2.84
2023-02-15T06:22:36.971Z,-2.84
2023-02-15T06:23:07.313Z,-2.84
2023-02-15T06:23:38.955Z,-2.84
2023-02-15T06:24:09.226Z,-2.84
2023-02-15T06:24:41.023Z,-2.89
2023-02-15T06:25:12.591Z,-2.89
2023-02-15T06:25:43.017Z,-2.89
2023-02-15T06:26:13.197Z,-2.89
2023-02-15T06:26:45.237Z,-2.89
2023-02-15T06:27:15.259Z,-2.89
2023-02-15T06:27:47.420Z,-2.89
2023-02-15T06:28:18.217Z,-2.89
2023-02-15T06:28:48.917Z,-2.89
2023-02-15T06:29:20.095Z,-3.00
2023-02-15T06:29:52.019Z,-3.00
2023-02-15T06:30:23.882Z,-2.89
2023-02-15T06:30:53.076Z,-2.89
2023-02-15T06:31:23.319Z,-2.89
2023-02-15T06:31:55.451Z,-2.89
2023-02-15T06:32:25.346Z,-2.89
2023-02-15T06:32:57.006Z,-2.89
2023-02-15T06:33:27.148Z,-2.89
2023-02-15T06:33:59.014Z,-2.89
2023-02-15T06:34:29.848Z,-2.89
2023-02-15T06:35:01.589Z,-2.84
2023-02-15T06:35:32.850Z,-2.84
2023-02-15T06:36:03.786Z,-2.84
2023-02-15T06:36:33.226Z,-2.84
2023-02-15T06:37:05.739Z,-2.84
2023-02-15T06:37:35.266Z,-2.73
2023-02-15T06:38:07.099Z,-2.73
2023-02-15T06:38:39.687Z,-2.73
2023-02-15T06:39:09.131Z,-2.84